Station Historical Data
Daily Summary for April 9, 2017 Units:  Both    English   Metric
« Previous Day
Next Day »
Daily Weekly Monthly Yearly Custom
  High: Low: Average:
Temperature: 78.2 °F /  25.7 °C 41.8 °F /  5.4 °C 61.1 °F /  16.2 °C
Dew Point: 43.1 °F /  6.2 °C 14.1 °F /  -9.9 °C 27 °F /  -2.8 °C
Humidity: 50% 16% 29%
Wind Speed: 2.0mph /  3.2km/h - 0.1mph /  0.2km/h
Wind Gust: 7.0mph /  11.3km/h - -
Wind- - WNW
Pressure: 30.24 in /  1023.9 hPa 30.10 in /  1019.2 hPa -
Precipitation: 0.02 in /  0.51 mm    
Historical Graphs
 
 
Tabular Data for April 9, 2017
Time Temperature Dew Point Pressure Wind Wind Speed Wind Gust Humidity Rainfall Rate (Hourly) solar Conditions
00:00 49.0 °F /  9.4 °C 20.3 °F /  -6.5 °C 30.12in /  1019.9hPa Calm     32% 0.00in /  0mm 0.0 W/m2 SCT
00:15 49.3 °F /  9.6 °C 20.7 °F /  -6.3 °C 30.12in /  1019.9hPa Calm     32% 0.00in /  0mm 0.0 W/m2 SCT
00:30 48.2 °F /  9 °C 19.7 °F /  -6.8 °C 30.12in /  1019.9hPa Calm     32% 0.00in /  0mm 0.0 W/m2 SCT
00:45 47.4 °F /  8.6 °C 19.0 °F /  -7.2 °C 30.12in /  1019.9hPa Calm     32% 0.00in /  0mm 0.0 W/m2 SCT
01:00 47.0 °F /  8.3 °C 18.6 °F /  -7.4 °C 30.12in /  1019.9hPa Calm     32% 0.00in /  0mm 0.0 W/m2 SCT
01:15 46.6 °F /  8.1 °C 18.3 °F /  -7.6 °C 30.12in /  1019.9hPa Calm     32% 0.00in /  0mm 0.0 W/m2 SCT
01:30 46.4 °F /  8 °C 18.1 °F /  -7.7 °C 30.12in /  1019.9hPa Calm     32% 0.00in /  0mm 0.0 W/m2 SCT
01:45 46.1 °F /  7.8 °C 17.8 °F /  -7.9 °C 30.11in /  1019.5hPa Calm     32% 0.00in /  0mm 0.0 W/m2 SCT
02:00 45.6 °F /  7.6 °C 17.4 °F /  -8.1 °C 30.11in /  1019.5hPa Calm     32% 0.00in /  0mm 0.0 W/m2 SCT
02:15 45.1 °F /  7.3 °C 16.9 °F /  -8.4 °C 30.11in /  1019.5hPa Calm     32% 0.00in /  0mm 0.0 W/m2 SCT
02:30 44.7 °F /  7.1 °C 16.6 °F /  -8.6 °C 30.11in /  1019.5hPa Calm     32% 0.00in /  0mm 0.0 W/m2 SCT
02:45 44.8 °F /  7.1 °C 16.7 °F /  -8.5 °C 30.11in /  1019.5hPa Calm     32% 0.00in /  0mm 0.0 W/m2 SCT
03:00 45.6 °F /  7.6 °C 17.4 °F /  -8.1 °C 30.11in /  1019.5hPa Calm     32% 0.00in /  0mm 0.0 W/m2 SCT
03:15 46.0 °F /  7.8 °C 17.7 °F /  -7.9 °C 30.10in /  1019.2hPa Calm     32% 0.00in /  0mm 0.0 W/m2 SCT
03:30 46.1 °F /  7.8 °C 17.8 °F /  -7.9 °C 30.11in /  1019.5hPa Calm     32% 0.00in /  0mm 0.0 W/m2 SCT
03:45 47.0 °F /  8.3 °C 18.6 °F /  -7.4 °C 30.10in /  1019.2hPa Calm     32% 0.00in /  0mm 0.0 W/m2 SCT
04:00 47.3 °F /  8.5 °C 18.9 °F /  -7.3 °C 30.11in /  1019.5hPa Calm     32% 0.00in /  0mm 0.0 W/m2 SCT
04:15 47.7 °F /  8.7 °C 19.2 °F /  -7.1 °C 30.12in /  1019.9hPa Calm     32% 0.00in /  0mm 0.0 W/m2 SCT
04:30 47.9 °F /  8.8 °C 19.4 °F /  -7 °C 30.12in /  1019.9hPa Calm     32% 0.00in /  0mm 0.0 W/m2 SCT
04:45 48.1 °F /  8.9 °C 19.6 °F /  -6.9 °C 30.12in /  1019.9hPa Calm     32% 0.00in /  0mm 0.0 W/m2 SCT
05:00 48.3 °F /  9.1 °C 19.8 °F /  -6.8 °C 30.12in /  1019.9hPa Calm     32% 0.00in /  0mm 0.0 W/m2 SCT
05:15 48.4 °F /  9.1 °C 19.9 °F /  -6.7 °C 30.13in /  1020.2hPa Calm     32% 0.00in /  0mm 0.0 W/m2 SCT
05:30 48.6 °F /  9.2 °C 20.1 °F /  -6.6 °C 30.13in /  1020.2hPa Calm     32% 0.00in /  0mm 0.0 W/m2 SCT
05:45 48.7 °F /  9.3 °C 20.1 °F /  -6.6 °C 30.13in /  1020.2hPa Calm     32% 0.00in /  0mm 0.0 W/m2 SCT
06:00 48.8 °F /  9.3 °C 20.2 °F /  -6.6 °C 30.14in /  1020.5hPa Calm     32% 0.00in /  0mm 0.0 W/m2 SCT
06:15 48.9 °F /  9.4 °C 20.3 °F /  -6.5 °C 30.13in /  1020.2hPa Calm     32% 0.00in /  0mm 0.0 W/m2 SCT
06:30 48.9 °F /  9.4 °C 20.3 °F /  -6.5 °C 30.15in /  1020.9hPa Calm     32% 0.00in /  0mm 0.0 W/m2 SCT
06:45 49.0 °F /  9.4 °C 20.4 °F /  -6.4 °C 30.16in /  1021.2hPa Calm     32% 0.00in /  0mm 0.0 W/m2 SCT
07:00 49.0 °F /  9.4 °C 20.4 °F /  -6.4 °C 30.15in /  1020.9hPa Calm     32% 0.00in /  0mm 0.0 W/m2 SCT
07:15 49.0 °F /  9.4 °C 20.4 °F /  -6.4 °C 30.17in /  1021.6hPa Calm     32% 0.00in /  0mm 0.0 W/m2 SCT
07:30 49.0 °F /  9.4 °C 20.4 °F /  -6.4 °C 30.17in /  1021.6hPa Calm     32% 0.00in /  0mm 0.0 W/m2 SCT
07:45 49.1 °F /  9.5 °C 20.4 °F /  -6.4 °C 30.18in /  1021.9hPa Calm     32% 0.00in /  0mm 0.0 W/m2 SCT
08:00 41.8 °F /  5.4 °C 14.1 °F /  -9.9 °C 30.18in /  1021.9hPa Calm     32% 0.00in /  0mm 0.0 W/m2 SCT
08:15 44.1 °F /  6.7 °C 16.1 °F /  -8.8 °C 30.19in /  1022.2hPa Calm     32% 0.00in /  0mm 0.0 W/m2 SCT
08:30 46.4 °F /  8 °C 18.1 °F /  -7.7 °C 30.20in /  1022.6hPa Calm     32% 0.00in /  0mm 0.0 W/m2 SCT
08:45 49.8 °F /  9.9 °C 21.1 °F /  -6.1 °C 30.20in /  1022.6hPa Calm     32% 0.00in /  0mm 0.0 W/m2 SCT
09:00 51.5 °F /  10.8 °C 22.6 °F /  -5.2 °C 30.21in /  1022.9hPa Calm     32% 0.00in /  0mm 0.0 W/m2 SCT
09:15 53.6 °F /  12 °C 24.4 °F /  -4.2 °C 30.21in /  1022.9hPa Calm     32% 0.00in /  0mm 0.0 W/m2 SCT
09:30 56.0 °F /  13.3 °C 37.6 °F /  3.1 °C 30.22in /  1023.2hPa Calm   1.0mph /  1.6km/h 50% 0.00in /  0mm W/m2 SCT
09:45 58.4 °F /  14.7 °C 37.7 °F /  3.2 °C 30.22in /  1023.2hPa Calm   1.0mph /  1.6km/h 46% 0.00in /  0mm W/m2 SCT
10:00 61.6 °F /  16.4 °C 37.0 °F /  2.8 °C 30.23in /  1023.6hPa Calm   1.0mph /  1.6km/h 40% 0.00in /  0mm W/m2 SCT
10:15 64.2 °F /  17.9 °C 38.7 °F /  3.7 °C 30.23in /  1023.6hPa Calm     39% 0.00in /  0mm W/m2 SCT
10:30 65.5 °F /  18.6 °C 36.4 °F /  2.4 °C 30.23in /  1023.6hPa Calm   1.0mph /  1.6km/h 34% 0.00in /  0mm W/m2 SCT
10:45 66.9 °F /  19.4 °C 34.4 °F /  1.3 °C 30.23in /  1023.6hPa Calm   2.0mph /  3.2km/h 30% 0.00in /  0mm W/m2 SCT
11:00 67.9 °F /  19.9 °C 32.7 °F /  0.4 °C 30.23in /  1023.6hPa Calm   3.0mph /  4.8km/h 27% 0.00in /  0mm W/m2 SCT
11:15 69.2 °F /  20.7 °C 32.8 °F /  0.4 °C 30.23in /  1023.6hPa Calm   5.0mph /  8km/h 26% 0.00in /  0mm W/m2 SCT
11:30 71.0 °F /  21.7 °C 36.3 °F /  2.4 °C 30.24in /  1023.9hPa Calm   1.0mph /  1.6km/h 28% 0.00in /  0mm W/m2 SCT
11:45 72.4 °F /  22.4 °C 32.5 °F /  0.3 °C 30.23in /  1023.6hPa Calm   2.0mph /  3.2km/h 23% 0.00in /  0mm W/m2 SCT
12:00 73.3 °F /  22.9 °C 32.1 °F /  0.1 °C 30.23in /  1023.6hPa Calm   5.0mph /  8km/h 22% 0.00in /  0mm W/m2 SCT
12:15 74.7 °F /  23.7 °C 31.0 °F /  -0.6 °C 30.23in /  1023.6hPa Calm   5.0mph /  8km/h 20% 0.00in /  0mm W/m2 SCT
12:30 75.6 °F /  24.2 °C 27.7 °F /  -2.4 °C 30.22in /  1023.2hPa Calm   2.0mph /  3.2km/h 17% 0.00in /  0mm W/m2 SCT
12:45 75.5 °F /  24.2 °C 27.6 °F /  -2.4 °C 30.22in /  1023.2hPa WSW 2.0mph /  3.2km/h 3.0mph /  4.8km/h 17% 0.00in /  0mm W/m2 SCT
13:00 75.9 °F /  24.4 °C 43.1 °F /  6.2 °C 30.21in /  1022.9hPa WNW 1.0mph /  1.6km/h 3.0mph /  4.8km/h 31% 0.00in /  0mm W/m2 SCT
13:15 76.2 °F /  24.6 °C 32.2 °F /  0.1 °C 30.21in /  1022.9hPa Calm   3.0mph /  4.8km/h 20% 0.00in /  0mm W/m2 SCT
13:30 75.5 °F /  24.2 °C 30.3 °F /  -0.9 °C 30.21in /  1022.9hPa NW 1.0mph /  1.6km/h 5.0mph /  8km/h 19% 0.00in /  0mm W/m2 SCT
13:45 76.7 °F /  24.8 °C 27.1 °F /  -2.7 °C 30.20in /  1022.6hPa WNW 1.0mph /  1.6km/h 3.0mph /  4.8km/h 16% 0.00in /  0mm W/m2 SCT
14:00 77.2 °F /  25.1 °C 30.4 °F /  -0.9 °C 30.19in /  1022.2hPa Calm   3.0mph /  4.8km/h 18% 0.00in /  0mm W/m2 SCT
14:15 77.4 °F /  25.2 °C 30.5 °F /  -0.8 °C 30.19in /  1022.2hPa Calm   5.0mph /  8km/h 18% 0.00in /  0mm W/m2 SCT
14:30 78.2 °F /  25.7 °C 33.8 °F /  1 °C 30.19in /  1022.2hPa West 1.0mph /  1.6km/h 3.0mph /  4.8km/h 20% 0.00in /  0mm W/m2 SCT
14:45 77.8 °F /  25.4 °C 30.9 °F /  -0.6 °C 30.18in /  1021.9hPa Calm   3.0mph /  4.8km/h 18% 0.00in /  0mm W/m2 SCT
15:00 76.8 °F /  24.9 °C 30.1 °F /  -1.1 °C 30.18in /  1021.9hPa Calm   3.0mph /  4.8km/h 18% 0.00in /  0mm W/m2 SCT
15:15 77.0 °F /  25 °C 31.6 °F /  -0.2 °C 30.17in /  1021.6hPa Calm   3.0mph /  4.8km/h 19% 0.00in /  0mm W/m2 SCT
15:30 76.5 °F /  24.7 °C 28.4 °F /  -2 °C 30.16in /  1021.2hPa WNW 1.0mph /  1.6km/h 3.0mph /  4.8km/h 17% 0.00in /  0mm W/m2 SCT
15:45 76.5 °F /  24.7 °C 32.4 °F /  0.2 °C 30.16in /  1021.2hPa NW 1.0mph /  1.6km/h 3.0mph /  4.8km/h 20% 0.00in /  0mm W/m2 SCT
16:00 76.4 °F /  24.7 °C 26.9 °F /  -2.8 °C 30.16in /  1021.2hPa NW 1.0mph /  1.6km/h 3.0mph /  4.8km/h 16% 0.00in /  0mm W/m2 SCT
16:15 76.1 °F /  24.5 °C 28.1 °F /  -2.2 °C 30.15in /  1020.9hPa Calm   5.0mph /  8km/h 17% 0.00in /  0mm W/m2 SCT
16:30 75.9 °F /  24.4 °C 29.3 °F /  -1.5 °C 30.15in /  1020.9hPa Calm   3.0mph /  4.8km/h 18% 0.00in /  0mm W/m2 SCT
16:45 76.1 °F /  24.5 °C 26.6 °F /  -3 °C 30.13in /  1020.2hPa WNW 1.0mph /  1.6km/h 3.0mph /  4.8km/h 16% 0.00in /  0mm W/m2 SCT
17:15 75.8 °F /  24.3 °C 26.4 °F /  -3.1 °C 30.14in /  1020.5hPa Calm   3.0mph /  4.8km/h 16% 0.00in /  0mm W/m2 SCT
17:30 75.7 °F /  24.3 °C 27.8 °F /  -2.3 °C 30.14in /  1020.5hPa NW 1.0mph /  1.6km/h 3.0mph /  4.8km/h 17% 0.00in /  0mm W/m2 SCT
17:45 75.7 °F /  24.3 °C 29.1 °F /  -1.6 °C 30.14in /  1020.5hPa Calm   2.0mph /  3.2km/h 18% 0.00in /  0mm W/m2 SCT
18:00 75.1 °F /  23.9 °C 25.8 °F /  -3.4 °C 30.13in /  1020.2hPa Calm   5.0mph /  8km/h 16% 0.00in /  0mm W/m2 SCT
18:15 74.7 °F /  23.7 °C 25.5 °F /  -3.6 °C 30.14in /  1020.5hPa Calm   5.0mph /  8km/h 16% 0.00in /  0mm W/m2 SCT
18:30 74.4 °F /  23.6 °C 29.5 °F /  -1.4 °C 30.13in /  1020.2hPa Calm   4.0mph /  6.4km/h 19% 0.00in /  0mm W/m2 SCT
18:45 73.6 °F /  23.1 °C 28.8 °F /  -1.8 °C 30.14in /  1020.5hPa Calm   7.0mph /  11.3km/h 19% 0.02in /  0.51mm W/m2 SCT
19:00 72.9 °F /  22.7 °C 26.9 °F /  -2.8 °C 30.13in /  1020.2hPa Calm   2.0mph /  3.2km/h 18% 0.00in /  0mm W/m2 SCT
19:15 72.4 °F /  22.4 °C 39.2 °F /  4 °C 30.14in /  1020.5hPa Calm   2.0mph /  3.2km/h 30% 0.00in /  0mm W/m2 SCT
19:30 71.4 °F /  21.9 °C 30.6 °F /  -0.8 °C 30.14in /  1020.5hPa Calm   2.0mph /  3.2km/h 22% 0.00in /  0mm W/m2 SCT
19:45 70.1 °F /  21.2 °C 32.6 °F /  0.3 °C 30.14in /  1020.5hPa Calm     25% 0.00in /  0mm W/m2 SCT
20:00 68.9 °F /  20.5 °C 32.6 °F /  0.3 °C 30.14in /  1020.5hPa Calm     26% 0.00in /  0mm W/m2 SCT
20:15 68.0 °F /  20 °C 31.8 °F /  -0.1 °C 30.14in /  1020.5hPa Calm     26% 0.00in /  0mm W/m2 SCT
20:30 67.3 °F /  19.6 °C 33.0 °F /  0.6 °C 30.14in /  1020.5hPa Calm     28% 0.00in /  0mm W/m2 SCT
20:45 66.5 °F /  19.2 °C 31.5 °F /  -0.3 °C 30.15in /  1020.9hPa Calm     27% 0.00in /  0mm W/m2 SCT
21:00 65.3 °F /  18.5 °C 34.7 °F /  1.5 °C 30.15in /  1020.9hPa Calm     32% 0.00in /  0mm W/m2 SCT
21:15 63.9 °F /  17.7 °C 33.5 °F /  0.8 °C 30.16in /  1021.2hPa Calm     32% 0.00in /  0mm W/m2 SCT
21:30 62.0 °F /  16.7 °C 32.6 °F /  0.3 °C 30.15in /  1020.9hPa Calm     33% 0.00in /  0mm W/m2 SCT
21:45 62.2 °F /  16.8 °C 36.3 °F /  2.4 °C 30.17in /  1021.6hPa Calm     38% 0.00in /  0mm W/m2 SCT
22:00 61.8 °F /  16.6 °C 33.8 °F /  1 °C 30.18in /  1021.9hPa Calm     35% 0.00in /  0mm W/m2 SCT
22:15 61.6 °F /  16.4 °C 33.7 °F /  0.9 °C 30.18in /  1021.9hPa Calm     35% 0.00in /  0mm W/m2 SCT
22:30 61.2 °F /  16.2 °C 33.3 °F /  0.7 °C 30.17in /  1021.6hPa Calm     35% 0.00in /  0mm W/m2 SCT
22:45 61.2 °F /  16.2 °C 34.0 °F /  1.1 °C 30.18in /  1021.9hPa Calm     36% 0.00in /  0mm W/m2 SCT
23:00 61.2 °F /  16.2 °C 34.0 °F /  1.1 °C 30.19in /  1022.2hPa Calm     36% 0.00in /  0mm W/m2 SCT
23:15 60.1 °F /  15.6 °C 37.5 °F /  3.1 °C 30.18in /  1021.9hPa Calm     43% 0.00in /  0mm W/m2 SCT
23:30 59.2 °F /  15.1 °C 37.3 °F /  2.9 °C 30.19in /  1022.2hPa Calm     44% 0.00in /  0mm W/m2 SCT
23:45 58.3 °F /  14.6 °C 38.7 °F /  3.7 °C 30.19in /  1022.2hPa Calm     48% 0.00in /  0mm W/m2 SCT
Piedmont Bend
Compliments of Weather Underground - 4 mb